createdAt,value
2023-02-18T00:01:32.245Z,0.00
2023-02-18T00:06:30.342Z,0.00
2023-02-18T00:11:31.650Z,0.00
2023-02-18T00:16:28.931Z,0.00
2023-02-18T00:21:29.157Z,0.00
2023-02-18T00:26:27.352Z,0.00
2023-02-18T00:31:26.645Z,0.00
2023-02-18T00:36:27.086Z,0.00
2023-02-18T00:41:26.074Z,0.00
2023-02-18T00:46:26.256Z,0.00
2023-02-18T00:51:23.416Z,0.00
2023-02-18T00:56:22.561Z,0.00
2023-02-18T01:01:23.770Z,0.00
2023-02-18T01:06:21.057Z,0.00
2023-02-18T01:11:20.285Z,0.00
2023-02-18T01:16:19.589Z,0.00
2023-02-18T01:21:19.613Z,0.00
2023-02-18T01:26:18.783Z,0.00
2023-02-18T01:31:18.097Z,0.00
2023-02-18T01:36:17.099Z,0.00
2023-02-18T01:41:16.273Z,0.00
2023-02-18T01:46:14.485Z,0.00
2023-02-18T01:51:14.710Z,0.00
2023-02-18T01:56:12.887Z,0.00
2023-02-18T02:01:12.205Z,0.00
2023-02-18T02:06:11.361Z,0.00
2023-02-18T02:11:11.560Z,0.00
2023-02-18T02:16:11.048Z,0.00
2023-02-18T02:21:10.936Z,0.00
2023-02-18T02:26:10.171Z,0.00
2023-02-18T02:31:07.459Z,0.00
2023-02-18T02:36:07.939Z,0.00
2023-02-18T02:41:05.887Z,0.00
2023-02-18T02:46:05.300Z,0.00
2023-02-18T02:51:04.463Z,0.00
2023-02-18T02:56:03.562Z,0.00
2023-02-18T03:01:03.932Z,0.00
2023-02-18T03:06:04.050Z,0.00
2023-02-18T03:11:02.341Z,0.00
2023-02-18T03:16:00.693Z,0.00
2023-02-18T03:21:01.784Z,0.00
2023-02-18T03:25:59.097Z,0.00
2023-02-18T03:30:58.547Z,0.00
2023-02-18T03:35:57.713Z,0.00
2023-02-18T03:40:57.030Z,0.00
2023-02-18T03:45:56.412Z,0.00
2023-02-18T03:50:55.549Z,0.00
2023-02-18T03:55:54.851Z,0.00
2023-02-18T04:00:56.163Z,0.00
2023-02-18T04:05:53.476Z,0.00
2023-02-18T04:10:54.742Z,0.00
2023-02-18T04:15:53.047Z,0.00
2023-02-18T04:20:51.371Z,0.00
2023-02-18T04:25:51.685Z,0.00
2023-02-18T04:30:50.123Z,0.00
2023-02-18T04:35:49.362Z,0.00
2023-02-18T04:40:48.498Z,0.00
2023-02-18T04:45:47.701Z,0.00
2023-02-18T04:50:48.840Z,0.00
2023-02-18T04:55:46.158Z,0.00
2023-02-18T05:00:46.348Z,0.00
2023-02-18T05:05:46.496Z,0.00
2023-02-18T05:10:43.830Z,0.00
2023-02-18T05:15:43.161Z,0.00
2023-02-18T05:20:42.278Z,0.00
2023-02-18T05:25:44.622Z,0.00
2023-02-18T05:30:40.977Z,0.00
2023-02-18T05:35:41.125Z,0.00
2023-02-18T05:40:40.284Z,0.00
2023-02-18T05:45:38.422Z,0.00
2023-02-18T05:50:37.582Z,0.00
2023-02-18T05:55:36.923Z,0.00
2023-02-18T06:00:36.225Z,0.00
2023-02-18T06:05:35.644Z,0.00
2023-02-18T06:10:35.775Z,0.00
2023-02-18T06:15:34.098Z,0.00
2023-02-18T06:20:34.244Z,0.00
2023-02-18T06:25:34.655Z,0.00
2023-02-18T06:30:31.820Z,0.00
2023-02-18T06:35:30.961Z,0.00
2023-02-18T06:40:30.296Z,0.00
2023-02-18T06:45:30.430Z,0.00
2023-02-18T06:50:28.748Z,0.00
2023-02-18T06:55:27.897Z,0.00
2023-02-18T07:00:29.040Z,0.00
2023-02-18T07:05:27.378Z,0.00
2023-02-18T07:10:26.514Z,0.00
2023-02-18T07:15:24.625Z,0.00
2023-02-18T07:20:25.950Z,0.00
2023-02-18T07:25:25.281Z,32.00
2023-02-18T07:30:23.623Z,24.00
2023-02-18T07:35:23.749Z,24.00
2023-02-18T07:40:22.123Z,24.00
2023-02-18T07:45:20.254Z,36.00
2023-02-18T07:50:19.549Z,44.00
2023-02-18T07:55:18.863Z,48.00
2023-02-18T08:00:18.164Z,48.00
2023-02-18T08:05:16.505Z,48.00
2023-02-18T08:10:18.631Z,48.00
2023-02-18T08:15:16.943Z,48.00
2023-02-18T08:20:16.256Z,48.00
2023-02-18T08:25:27.662Z,52.00
2023-02-18T08:30:13.865Z,56.00
2023-02-18T08:35:13.143Z,52.00
2023-02-18T08:40:13.430Z,52.00
2023-02-18T08:45:11.707Z,56.00
2023-02-18T08:50:11.004Z,64.00
2023-02-18T08:55:10.316Z,64.00
2023-02-18T09:00:09.631Z,68.00
2023-02-18T09:05:09.929Z,72.00
2023-02-18T09:10:08.264Z,80.00
2023-02-18T09:15:06.375Z,80.00
2023-02-18T09:20:08.695Z,84.00
2023-02-18T09:25:06.964Z,88.00
2023-02-18T09:30:08.457Z,84.00
2023-02-18T09:35:04.574Z,76.00
2023-02-18T09:40:05.747Z,80.00
2023-02-18T09:45:03.936Z,100.00
2023-02-18T09:50:04.127Z,84.00
2023-02-18T09:55:02.248Z,84.00
2023-02-18T10:00:01.613Z,80.00
2023-02-18T10:05:00.704Z,76.00
2023-02-18T10:09:59.162Z,76.00
2023-02-18T10:14:58.251Z,88.00
2023-02-18T10:19:57.542Z,68.00
2023-02-18T10:24:56.829Z,76.00
2023-02-18T10:29:55.146Z,84.00
2023-02-18T10:34:57.762Z,88.00
2023-02-18T10:39:54.657Z,76.00
2023-02-18T10:44:54.781Z,84.00
2023-02-18T10:49:53.151Z,92.00
2023-02-18T10:54:54.327Z,100.00
2023-02-18T10:59:52.406Z,88.00
2023-02-18T11:04:49.796Z,92.00
2023-02-18T11:09:49.945Z,96.00
2023-02-18T11:14:48.069Z,88.00
2023-02-18T11:19:49.281Z,92.00
2023-02-18T11:24:46.476Z,80.00
2023-02-18T11:29:46.626Z,84.00
2023-02-18T11:34:45.958Z,88.00
2023-02-18T11:39:46.324Z,88.00
2023-02-18T11:44:44.457Z,96.00
2023-02-18T11:49:44.797Z,92.00
2023-02-18T11:54:44.110Z,88.00
2023-02-18T11:59:42.446Z,88.00
2023-02-18T12:04:41.681Z,92.00
2023-02-18T12:09:40.801Z,92.00
2023-02-18T12:14:40.383Z,92.00
2023-02-18T12:19:39.466Z,572.00
2023-02-18T12:24:38.631Z,512.00
2023-02-18T12:29:39.763Z,568.00
2023-02-18T12:34:37.078Z,584.00
2023-02-18T12:39:37.199Z,596.00
2023-02-18T12:44:35.487Z,588.00
2023-02-18T12:49:35.010Z,568.00
2023-02-18T12:54:35.217Z,548.00
2023-02-18T12:59:36.255Z,588.00
2023-02-18T13:04:33.126Z,572.00
2023-02-18T13:09:34.502Z,524.00
2023-02-18T13:14:31.858Z,464.00
2023-02-18T13:19:30.215Z,428.00
2023-02-18T13:24:29.177Z,384.00
2023-02-18T13:29:29.748Z,396.00
2023-02-18T13:34:27.678Z,376.00
2023-02-18T13:39:27.009Z,352.00
2023-02-18T13:44:27.339Z,340.00
2023-02-18T13:49:26.483Z,348.00
2023-02-18T13:54:27.076Z,348.00
2023-02-18T13:59:24.058Z,324.00
2023-02-18T14:04:23.201Z,280.00
2023-02-18T14:09:22.490Z,268.00
2023-02-18T14:14:22.806Z,292.00
2023-02-18T14:19:21.114Z,336.00
2023-02-18T14:24:21.480Z,320.00
2023-02-18T14:29:19.599Z,328.00
2023-02-18T14:34:18.926Z,308.00
2023-02-18T14:39:19.320Z,304.00
2023-02-18T14:44:18.666Z,324.00
2023-02-18T14:49:17.880Z,304.00
2023-02-18T14:54:15.840Z,284.00
2023-02-18T14:59:17.230Z,280.00
2023-02-18T15:04:15.685Z,288.00
2023-02-18T15:09:13.565Z,268.00
2023-02-18T15:14:13.791Z,256.00
2023-02-18T15:19:13.555Z,228.00
2023-02-18T15:24:12.095Z,224.00
2023-02-18T15:29:11.572Z,216.00
2023-02-18T15:34:08.669Z,176.00
2023-02-18T15:39:09.532Z,172.00
2023-02-18T15:44:07.862Z,156.00
2023-02-18T15:49:10.158Z,148.00
2023-02-18T15:54:06.466Z,132.00
2023-02-18T15:59:05.960Z,120.00
2023-02-18T16:04:09.242Z,112.00
2023-02-18T16:09:04.428Z,108.00
2023-02-18T16:14:04.648Z,92.00
2023-02-18T16:19:06.972Z,76.00
2023-02-18T16:24:02.071Z,60.00
2023-02-18T16:29:01.739Z,48.00
2023-02-18T16:34:01.034Z,40.00
2023-02-18T16:39:02.054Z,24.00
2023-02-18T16:44:00.624Z,16.00
2023-02-18T16:48:58.606Z,12.00
2023-02-18T16:53:57.822Z,8.00
2023-02-18T16:58:57.112Z,4.00
2023-02-18T17:03:56.634Z,0.00
2023-02-18T17:08:55.573Z,0.00
2023-02-18T17:13:54.795Z,0.00
2023-02-18T17:18:54.026Z,0.00
2023-02-18T17:23:55.530Z,0.00
2023-02-18T17:28:52.571Z,0.00
2023-02-18T17:33:51.936Z,0.00
2023-02-18T17:38:51.001Z,4.00
2023-02-18T17:43:51.349Z,4.00
2023-02-18T17:48:49.600Z,4.00
2023-02-18T17:53:48.969Z,4.00
2023-02-18T17:58:49.110Z,4.00
2023-02-18T18:03:48.489Z,4.00
2023-02-18T18:08:46.691Z,4.00
2023-02-18T18:13:44.882Z,8.00
2023-02-18T18:18:44.089Z,8.00
2023-02-18T18:23:44.248Z,12.00
2023-02-18T18:28:42.415Z,8.00
2023-02-18T18:33:42.600Z,8.00
2023-02-18T18:38:41.489Z,8.00
2023-02-18T18:43:40.712Z,0.00
2023-02-18T18:48:40.219Z,0.00
2023-02-18T18:53:53.941Z,0.00
2023-02-18T18:58:40.599Z,0.00
2023-02-18T19:03:39.004Z,0.00
2023-02-18T19:08:37.197Z,0.00
2023-02-18T19:13:36.454Z,0.00
2023-02-18T19:18:36.562Z,0.00
2023-02-18T19:23:35.045Z,0.00
2023-02-18T19:28:35.264Z,0.00
2023-02-18T19:33:32.514Z,0.00
2023-02-18T19:38:31.755Z,0.00
2023-02-18T19:43:33.990Z,0.00
2023-02-18T19:48:31.112Z,0.00
2023-02-18T19:53:30.344Z,0.00
2023-02-18T19:58:30.577Z,0.00
2023-02-18T20:03:28.760Z,0.00
2023-02-18T20:08:27.932Z,0.00
2023-02-18T20:13:27.848Z,0.00
2023-02-18T20:18:27.325Z,0.00
2023-02-18T20:23:24.181Z,0.00
2023-02-18T20:28:23.731Z,0.00
2023-02-18T20:33:24.671Z,0.00
2023-02-18T20:38:23.132Z,0.00
2023-02-18T20:43:23.377Z,0.00
2023-02-18T20:48:21.484Z,0.00
2023-02-18T20:53:21.434Z,0.00
2023-02-18T20:58:20.997Z,0.00
2023-02-18T21:03:20.029Z,0.00
2023-02-18T21:08:20.327Z,0.00
2023-02-18T21:13:18.530Z,4.00
2023-02-18T21:18:16.872Z,4.00
2023-02-18T21:23:16.088Z,4.00
2023-02-18T21:28:16.356Z,4.00
2023-02-18T21:33:15.230Z,4.00
2023-02-18T21:38:15.439Z,4.00
2023-02-18T21:43:13.833Z,4.00
2023-02-18T21:48:12.909Z,4.00
2023-02-18T21:53:11.153Z,4.00
2023-02-18T21:58:10.396Z,4.00
2023-02-18T22:03:09.914Z,4.00
2023-02-18T22:08:08.783Z,4.00
2023-02-18T22:13:09.160Z,4.00
2023-02-18T22:18:07.271Z,4.00
2023-02-18T22:23:08.437Z,4.00
2023-02-18T22:28:07.399Z,4.00
2023-02-18T22:33:04.848Z,4.00
2023-02-18T22:38:07.024Z,4.00
2023-02-18T22:43:04.212Z,8.00
2023-02-18T22:48:02.392Z,8.00
2023-02-18T22:53:02.592Z,8.00
2023-02-18T22:58:00.734Z,8.00
2023-02-18T23:03:00.906Z,8.00
2023-02-18T23:07:58.075Z,8.00
2023-02-18T23:12:59.292Z,8.00
2023-02-18T23:17:57.547Z,8.00
2023-02-18T23:22:56.728Z,8.00
2023-02-18T23:27:57.916Z,8.00
2023-02-18T23:32:55.098Z,8.00
2023-02-18T23:37:54.276Z,8.00
2023-02-18T23:42:53.453Z,8.00
2023-02-18T23:47:53.628Z,8.00
2023-02-18T23:52:51.819Z,8.00
2023-02-18T23:57:50.996Z,8.00
